createdAt,value
2023-01-19T00:00:10.986Z,36.63
2023-01-19T00:02:39.354Z,45.30
2023-01-19T00:05:09.198Z,122.00
2023-01-19T00:07:36.801Z,98.73
2023-01-19T00:10:04.825Z,48.23
2023-01-19T00:12:37.747Z,44.10
2023-01-19T00:15:05.470Z,38.33
2023-01-19T00:17:35.095Z,42.73
2023-01-19T00:20:03.202Z,37.83
2023-01-19T00:22:36.256Z,35.70
2023-01-19T00:25:06.166Z,32.93
2023-01-19T00:27:35.297Z,33.70
2023-01-19T00:30:03.515Z,30.93
2023-01-19T00:32:32.126Z,33.80
2023-01-19T00:35:00.629Z,30.50
2023-01-19T00:37:29.104Z,31.63
2023-01-19T00:39:55.978Z,33.93
2023-01-19T00:42:41.701Z,33.60
2023-01-19T00:45:40.702Z,35.90
2023-01-19T00:48:09.984Z,35.70
2023-01-19T00:50:38.199Z,37.63
2023-01-19T00:53:08.077Z,37.87
2023-01-19T00:55:36.188Z,34.77
2023-01-19T00:58:05.738Z,34.83
2023-01-19T01:00:36.426Z,35.00
2023-01-19T01:03:04.436Z,36.17
2023-01-19T01:05:33.331Z,33.80
2023-01-19T01:08:01.886Z,33.57
2023-01-19T01:10:29.808Z,31.43
2023-01-19T01:12:58.720Z,33.27
2023-01-19T01:15:46.649Z,31.70
2023-01-19T01:18:15.018Z,29.50
2023-01-19T01:20:42.896Z,31.70
2023-01-19T01:23:11.132Z,28.07
2023-01-19T01:25:39.941Z,30.00
2023-01-19T01:28:09.897Z,29.50
2023-01-19T01:30:41.664Z,30.27
2023-01-19T01:35:35.713Z,25.70
2023-01-19T01:38:06.136Z,26.43
2023-01-19T01:40:34.577Z,28.53
2023-01-19T01:43:04.431Z,32.40
2023-01-19T01:45:33.467Z,30.87
2023-01-19T01:48:04.644Z,29.87
2023-01-19T01:50:33.402Z,31.20
2023-01-19T01:53:08.986Z,27.97
2023-01-19T01:55:45.898Z,30.03
2023-01-19T01:58:14.997Z,27.60
2023-01-19T02:01:02.011Z,29.07
2023-01-19T02:03:29.008Z,26.23
2023-01-19T02:06:00.094Z,25.03
2023-01-19T02:08:49.012Z,27.95
2023-01-19T02:11:36.073Z,26.87
2023-01-19T02:14:05.991Z,26.37
2023-01-19T02:16:36.849Z,26.60
2023-01-19T02:19:05.911Z,26.30
2023-01-19T02:21:40.064Z,25.07
2023-01-19T02:24:09.651Z,25.63
2023-01-19T02:26:42.183Z,25.50
2023-01-19T02:29:12.397Z,28.67
2023-01-19T02:31:41.127Z,28.50
2023-01-19T02:34:12.231Z,28.90
2023-01-19T02:37:00.139Z,28.10
2023-01-19T02:39:45.885Z,27.00
2023-01-19T02:42:14.878Z,28.03
2023-01-19T02:44:44.244Z,28.13
2023-01-19T02:47:15.415Z,29.70
2023-01-19T02:49:42.951Z,26.83
2023-01-19T02:52:17.255Z,27.47
2023-01-19T02:54:56.184Z,25.93
2023-01-19T02:57:39.401Z,26.17
2023-01-19T03:00:18.502Z,26.70
2023-01-19T03:02:47.515Z,25.83
2023-01-19T03:05:27.061Z,25.33
2023-01-19T03:08:34.442Z,25.37
2023-01-19T03:11:19.070Z,24.47
2023-01-19T03:13:47.621Z,25.70
2023-01-19T03:16:22.598Z,27.27
2023-01-19T03:19:00.670Z,30.37
2023-01-19T03:21:28.957Z,27.20
2023-01-19T03:24:00.110Z,25.47
2023-01-19T03:26:29.799Z,25.92
2023-01-19T03:29:03.948Z,26.63
2023-01-19T03:31:32.309Z,25.60
2023-01-19T03:34:07.184Z,23.93
2023-01-19T03:36:42.042Z,25.20
2023-01-19T03:39:10.658Z,25.73
2023-01-19T03:41:39.384Z,24.20
2023-01-19T03:44:15.888Z,27.30
2023-01-19T03:46:44.902Z,24.80
2023-01-19T03:49:14.459Z,25.47
2023-01-19T03:51:42.343Z,23.77
2023-01-19T03:54:20.677Z,23.83
2023-01-19T03:56:50.066Z,25.17
2023-01-19T03:59:22.112Z,24.70
2023-01-19T04:01:53.834Z,24.80
2023-01-19T04:06:50.784Z,22.17
2023-01-19T04:09:20.249Z,22.97
2023-01-19T04:11:48.863Z,25.50
2023-01-19T04:14:15.772Z,24.87
2023-01-19T04:16:44.025Z,25.90
2023-01-19T04:19:10.665Z,25.43
2023-01-19T04:21:38.560Z,26.20
2023-01-19T04:24:07.006Z,31.20
2023-01-19T04:26:36.166Z,38.23
2023-01-19T04:29:11.988Z,32.93
2023-01-19T04:31:40.963Z,27.20
2023-01-19T04:34:08.377Z,27.47
2023-01-19T04:36:39.479Z,28.87
2023-01-19T04:39:11.212Z,28.23
2023-01-19T04:41:41.259Z,29.05
2023-01-19T04:44:08.456Z,30.13
2023-01-19T04:46:37.378Z,30.67
2023-01-19T04:49:06.326Z,29.60
2023-01-19T04:51:35.216Z,33.60
2023-01-19T04:54:03.742Z,32.00
2023-01-19T04:56:30.882Z,31.87
2023-01-19T04:59:00.122Z,31.27
2023-01-19T05:01:28.208Z,31.60
2023-01-19T05:03:57.659Z,26.43
2023-01-19T05:06:25.440Z,26.43
2023-01-19T05:08:52.785Z,24.27
2023-01-19T05:11:20.612Z,23.87
2023-01-19T05:13:51.052Z,23.50
2023-01-19T05:16:20.142Z,22.90
2023-01-19T05:18:47.708Z,23.20
2023-01-19T05:21:16.024Z,22.30
2023-01-19T05:23:44.282Z,24.53
2023-01-19T05:26:14.642Z,21.97
2023-01-19T05:28:44.474Z,23.47
2023-01-19T05:31:13.822Z,24.77
2023-01-19T05:33:42.029Z,23.90
2023-01-19T05:36:10.246Z,21.50
2023-01-19T05:38:40.912Z,25.73
2023-01-19T05:41:07.832Z,24.77
2023-01-19T05:43:36.554Z,23.50
2023-01-19T05:46:06.365Z,21.77
2023-01-19T05:48:34.555Z,21.83
2023-01-19T05:51:01.863Z,20.47
2023-01-19T05:53:29.871Z,24.33
2023-01-19T05:56:02.618Z,23.97
2023-01-19T05:58:29.429Z,22.03
2023-01-19T06:01:02.345Z,29.30
2023-01-19T06:03:29.982Z,30.20
2023-01-19T06:05:57.466Z,27.07
2023-01-19T06:08:24.236Z,26.63
2023-01-19T06:10:51.180Z,25.53
2023-01-19T06:13:18.329Z,23.90
2023-01-19T06:15:46.548Z,23.80
2023-01-19T06:18:15.075Z,21.60
2023-01-19T06:20:42.124Z,21.70
2023-01-19T06:23:10.915Z,26.43
2023-01-19T06:25:37.725Z,23.73
2023-01-19T06:28:05.836Z,26.63
2023-01-19T06:30:32.524Z,25.23
2023-01-19T06:32:59.692Z,27.37
2023-01-19T06:35:27.368Z,25.67
2023-01-19T06:37:59.261Z,24.23
2023-01-19T06:40:26.057Z,24.50
2023-01-19T06:42:53.551Z,23.77
2023-01-19T06:45:20.740Z,22.03
2023-01-19T06:47:49.591Z,23.60
2023-01-19T06:50:16.459Z,23.87
2023-01-19T06:52:43.364Z,25.33
2023-01-19T06:55:11.684Z,22.90
2023-01-19T06:57:42.142Z,24.77
2023-01-19T07:00:15.479Z,25.83
2023-01-19T07:02:43.460Z,25.60
2023-01-19T07:05:14.751Z,24.23
2023-01-19T07:07:43.543Z,22.08
2023-01-19T07:10:13.368Z,20.97
2023-01-19T07:12:40.819Z,23.00
2023-01-19T07:15:08.030Z,23.23
2023-01-19T07:17:35.602Z,24.03
2023-01-19T07:20:07.385Z,22.13
2023-01-19T07:25:01.911Z,21.43
2023-01-19T07:27:29.072Z,25.20
2023-01-19T07:29:56.002Z,23.27
2023-01-19T07:32:23.379Z,31.93
2023-01-19T07:34:50.095Z,35.20
2023-01-19T07:37:16.935Z,34.57
2023-01-19T07:39:47.245Z,35.33
2023-01-19T07:42:14.313Z,33.53
2023-01-19T07:44:45.376Z,31.20
2023-01-19T07:47:13.038Z,32.42
2023-01-19T07:49:40.948Z,30.20
2023-01-19T07:52:08.052Z,32.83
2023-01-19T07:54:34.705Z,34.43
2023-01-19T07:57:01.744Z,34.10
2023-01-19T07:59:30.621Z,31.30
2023-01-19T08:01:59.990Z,33.43
2023-01-19T08:04:30.592Z,30.30
2023-01-19T08:06:57.909Z,29.13
2023-01-19T08:09:27.040Z,28.17
2023-01-19T08:11:54.012Z,28.90
2023-01-19T08:14:21.796Z,26.77
2023-01-19T08:16:50.093Z,28.37
2023-01-19T08:19:17.551Z,25.17
2023-01-19T08:21:47.005Z,21.70
2023-01-19T08:24:24.523Z,24.57
2023-01-19T08:26:52.332Z,23.13
2023-01-19T08:29:19.912Z,21.70
2023-01-19T08:31:48.829Z,21.10
2023-01-19T08:34:15.696Z,22.03
2023-01-19T08:36:43.347Z,21.10
2023-01-19T08:39:14.761Z,20.63
2023-01-19T08:41:46.376Z,23.58
2023-01-19T08:44:13.564Z,22.35
2023-01-19T08:46:44.526Z,22.87
2023-01-19T08:49:11.984Z,26.02
2023-01-19T08:51:39.561Z,21.80
2023-01-19T08:54:06.824Z,22.57
2023-01-19T08:56:39.299Z,23.93
2023-01-19T08:59:11.935Z,23.90
2023-01-19T09:01:40.189Z,23.23
2023-01-19T09:04:07.343Z,31.20
2023-01-19T09:06:34.405Z,32.73
2023-01-19T09:09:01.879Z,29.73
2023-01-19T09:11:32.776Z,23.63
2023-01-19T09:14:01.649Z,23.13
2023-01-19T09:16:30.322Z,21.70
2023-01-19T09:18:59.494Z,22.30
2023-01-19T09:21:29.599Z,19.40
2023-01-19T09:23:56.659Z,17.70
2023-01-19T09:26:25.921Z,17.97
2023-01-19T09:28:54.512Z,20.20
2023-01-19T09:31:28.245Z,21.40
2023-01-19T09:33:56.565Z,20.77
2023-01-19T09:36:24.158Z,32.40
2023-01-19T09:38:51.131Z,39.47
2023-01-19T09:41:26.850Z,49.07
2023-01-19T09:44:00.075Z,38.60
2023-01-19T09:46:36.639Z,42.10
2023-01-19T09:49:08.744Z,40.40
2023-01-19T09:51:39.845Z,24.20
2023-01-19T09:54:19.996Z,22.63
2023-01-19T09:56:50.597Z,35.07
2023-01-19T09:59:28.930Z,26.63
2023-01-19T10:02:01.358Z,28.10
2023-01-19T10:04:30.336Z,25.43
2023-01-19T10:07:20.689Z,26.60
2023-01-19T10:10:04.956Z,25.47
2023-01-19T10:12:44.821Z,28.67
2023-01-19T10:15:29.987Z,25.77
2023-01-19T10:17:57.012Z,25.67
2023-01-19T10:20:28.536Z,24.87
2023-01-19T10:22:56.335Z,23.58
2023-01-19T10:25:24.680Z,23.27
2023-01-19T10:27:51.919Z,23.67
2023-01-19T10:30:25.246Z,21.67
2023-01-19T10:32:52.457Z,17.90
2023-01-19T10:35:26.377Z,15.27
2023-01-19T10:37:56.510Z,12.37
2023-01-19T10:40:35.006Z,13.17
2023-01-19T10:43:02.265Z,12.47
2023-01-19T10:45:31.196Z,13.27
2023-01-19T10:48:01.394Z,15.80
2023-01-19T10:50:31.079Z,13.10
2023-01-19T10:53:02.631Z,21.47
2023-01-19T10:57:57.016Z,22.03
2023-01-19T11:00:31.386Z,13.67
2023-01-19T11:02:58.249Z,14.23
2023-01-19T11:05:31.042Z,12.40
2023-01-19T11:07:57.829Z,17.77
2023-01-19T11:10:29.803Z,20.63
2023-01-19T11:13:01.733Z,29.87
2023-01-19T11:15:30.863Z,35.00
2023-01-19T11:18:02.056Z,18.97
2023-01-19T11:20:30.227Z,15.40
2023-01-19T11:23:15.084Z,15.97
2023-01-19T11:25:46.169Z,22.03
2023-01-19T11:28:37.854Z,18.65
2023-01-19T11:31:12.922Z,24.38
2023-01-19T11:33:42.673Z,18.90
2023-01-19T11:36:23.199Z,18.57
2023-01-19T11:38:51.475Z,20.47
2023-01-19T11:41:20.927Z,21.27
2023-01-19T11:43:52.073Z,19.07
2023-01-19T11:46:21.723Z,24.15
2023-01-19T11:49:02.303Z,16.77
2023-01-19T11:51:39.279Z,15.33
2023-01-19T11:54:15.708Z,14.00
2023-01-19T11:56:49.194Z,16.20
2023-01-19T11:59:26.337Z,19.03
2023-01-19T12:01:56.619Z,23.80
2023-01-19T12:04:30.873Z,16.80
2023-01-19T12:06:58.237Z,17.03
2023-01-19T12:09:30.391Z,18.17
2023-01-19T12:11:58.943Z,17.03
2023-01-19T12:14:29.043Z,15.85
2023-01-19T12:16:58.111Z,16.67
2023-01-19T12:19:44.404Z,16.83
2023-01-19T12:22:14.129Z,16.93
2023-01-19T12:24:45.720Z,15.40
2023-01-19T12:27:18.671Z,17.17
2023-01-19T12:29:46.611Z,16.83
2023-01-19T12:32:13.475Z,16.63
2023-01-19T12:34:41.736Z,18.83
2023-01-19T12:37:31.394Z,17.07
2023-01-19T12:39:59.267Z,17.97
2023-01-19T12:42:26.688Z,21.70
2023-01-19T12:45:13.290Z,21.30
2023-01-19T12:47:40.018Z,39.17
2023-01-19T12:50:19.684Z,38.67
2023-01-19T12:52:57.311Z,37.53
2023-01-19T12:55:31.314Z,21.70
2023-01-19T12:58:13.249Z,27.10
2023-01-19T13:00:41.419Z,22.63
2023-01-19T13:03:17.263Z,21.03
2023-01-19T13:05:43.934Z,21.00
2023-01-19T13:08:10.590Z,20.00
2023-01-19T13:10:53.413Z,20.80
2023-01-19T13:13:21.855Z,27.17
2023-01-19T13:15:49.620Z,24.83
2023-01-19T13:18:21.255Z,23.90
2023-01-19T13:20:52.605Z,25.33
2023-01-19T13:23:21.657Z,24.75
2023-01-19T13:25:50.981Z,23.50
2023-01-19T13:28:19.260Z,21.40
2023-01-19T13:30:54.711Z,20.03
2023-01-19T13:33:25.419Z,16.97
2023-01-19T13:35:56.814Z,19.40
2023-01-19T13:38:24.044Z,16.58
2023-01-19T13:40:52.023Z,15.73
2023-01-19T13:43:24.259Z,16.83
2023-01-19T13:45:53.454Z,25.00
2023-01-19T13:48:22.580Z,21.60
2023-01-19T13:51:04.213Z,17.07
2023-01-19T13:53:31.749Z,18.60
2023-01-19T13:56:19.837Z,29.93
2023-01-19T14:01:55.858Z,18.60
2023-01-19T14:04:30.556Z,15.37
2023-01-19T14:07:03.182Z,15.83
2023-01-19T14:09:30.194Z,16.53
2023-01-19T14:12:06.215Z,18.27
2023-01-19T14:14:36.083Z,18.73
2023-01-19T14:17:03.601Z,17.53
2023-01-19T14:19:49.203Z,18.90
2023-01-19T14:22:16.144Z,19.30
2023-01-19T14:24:43.532Z,20.60
2023-01-19T14:27:24.910Z,20.33
2023-01-19T14:29:54.120Z,19.85
2023-01-19T14:32:21.328Z,23.13
2023-01-19T14:34:50.156Z,20.60
2023-01-19T14:37:20.281Z,22.77
2023-01-19T14:40:01.226Z,26.70
2023-01-19T14:42:30.229Z,24.98
2023-01-19T14:45:00.024Z,28.53
2023-01-19T14:47:33.286Z,26.53
2023-01-19T14:50:05.482Z,26.97
2023-01-19T14:52:35.226Z,27.10
2023-01-19T14:55:09.057Z,28.43
2023-01-19T14:57:39.263Z,28.13
2023-01-19T15:00:17.941Z,26.17
2023-01-19T15:02:46.054Z,28.07
2023-01-19T15:05:16.667Z,27.53
2023-01-19T15:07:45.275Z,31.30
2023-01-19T15:10:21.090Z,26.67
2023-01-19T15:12:56.360Z,28.00
2023-01-19T15:15:35.270Z,27.57
2023-01-19T15:18:05.397Z,27.07
2023-01-19T15:20:32.248Z,27.13
2023-01-19T15:22:58.962Z,29.20
2023-01-19T15:25:30.696Z,29.53
2023-01-19T15:30:33.773Z,26.17
2023-01-19T15:33:00.580Z,30.00
2023-01-19T15:35:28.089Z,30.47
2023-01-19T15:37:55.141Z,25.53
2023-01-19T15:40:23.775Z,29.57
2023-01-19T15:42:51.499Z,26.93
2023-01-19T15:45:50.694Z,25.20
2023-01-19T15:48:17.601Z,24.60
2023-01-19T15:50:45.418Z,23.00
2023-01-19T15:53:16.409Z,26.53
2023-01-19T15:55:44.104Z,25.17
2023-01-19T15:58:14.992Z,26.80
2023-01-19T16:00:42.167Z,27.77
2023-01-19T16:03:11.192Z,26.10
2023-01-19T16:05:43.589Z,24.97
2023-01-19T16:08:12.012Z,25.17
2023-01-19T16:10:39.080Z,25.83
2023-01-19T16:13:06.775Z,25.27
2023-01-19T16:15:37.391Z,23.53
2023-01-19T16:18:05.295Z,24.90
2023-01-19T16:20:33.645Z,24.57
2023-01-19T16:23:15.315Z,24.00
2023-01-19T16:28:09.281Z,24.30
2023-01-19T16:30:36.237Z,26.13
2023-01-19T16:33:05.743Z,26.43
2023-01-19T16:35:34.356Z,25.90
2023-01-19T16:38:05.111Z,23.33
2023-01-19T16:40:34.983Z,24.47
2023-01-19T16:43:06.207Z,25.13
2023-01-19T16:45:35.316Z,21.42
2023-01-19T16:48:02.599Z,20.57
2023-01-19T16:50:29.590Z,22.23
2023-01-19T16:52:58.036Z,21.97
2023-01-19T16:55:28.059Z,23.27
2023-01-19T16:57:56.026Z,21.67
2023-01-19T17:00:30.314Z,23.50
2023-01-19T17:02:57.715Z,21.53
2023-01-19T17:05:26.585Z,22.43
2023-01-19T17:07:53.468Z,20.77
2023-01-19T17:10:23.862Z,21.53
2023-01-19T17:12:51.189Z,22.33
2023-01-19T17:15:19.624Z,20.13
2023-01-19T17:17:49.237Z,20.57
2023-01-19T17:20:18.087Z,21.80
2023-01-19T17:22:45.194Z,19.40
2023-01-19T17:25:12.267Z,22.13
2023-01-19T17:27:41.161Z,20.93
2023-01-19T17:30:27.991Z,21.30
2023-01-19T17:32:58.032Z,19.27
2023-01-19T17:35:25.185Z,21.50
2023-01-19T17:37:58.535Z,24.33
2023-01-19T17:40:32.303Z,20.90
2023-01-19T17:43:01.918Z,22.50
2023-01-19T17:45:31.694Z,20.37
2023-01-19T17:48:00.252Z,20.43
2023-01-19T17:50:27.513Z,20.67
2023-01-19T17:52:54.338Z,20.80
2023-01-19T17:55:23.969Z,19.77
2023-01-19T17:57:52.991Z,20.47
2023-01-19T18:00:21.356Z,20.17
2023-01-19T18:02:52.698Z,19.60
2023-01-19T18:05:21.378Z,19.42
2023-01-19T18:07:50.602Z,18.30
2023-01-19T18:10:18.271Z,19.37
2023-01-19T18:12:46.478Z,18.80
2023-01-19T18:15:16.745Z,19.53
2023-01-19T18:17:49.737Z,20.07
2023-01-19T18:20:18.520Z,21.23
2023-01-19T18:22:52.014Z,19.23
2023-01-19T18:25:22.350Z,19.87
2023-01-19T18:27:49.938Z,19.17
2023-01-19T18:30:20.738Z,20.67
2023-01-19T18:32:54.565Z,21.50
2023-01-19T18:35:24.122Z,20.07
2023-01-19T18:37:51.670Z,20.37
2023-01-19T18:40:18.802Z,22.33
2023-01-19T18:42:46.419Z,22.73
2023-01-19T18:45:16.306Z,18.43
2023-01-19T18:47:43.060Z,20.17
2023-01-19T18:50:13.236Z,20.87
2023-01-19T18:52:41.535Z,21.27
2023-01-19T18:55:09.290Z,21.63
2023-01-19T18:57:38.033Z,20.57
2023-01-19T19:00:05.959Z,22.80
2023-01-19T19:02:37.483Z,20.40
2023-01-19T19:05:06.530Z,19.80
2023-01-19T19:07:34.569Z,20.33
2023-01-19T19:10:03.712Z,21.27
2023-01-19T19:12:34.927Z,19.37
2023-01-19T19:15:02.113Z,19.73
2023-01-19T19:17:29.602Z,19.77
2023-01-19T19:19:57.172Z,18.67
2023-01-19T19:22:25.637Z,18.83
2023-01-19T19:24:53.853Z,17.17
2023-01-19T19:27:21.276Z,19.97
2023-01-19T19:29:52.602Z,20.30
2023-01-19T19:32:23.431Z,20.77
2023-01-19T19:34:59.702Z,19.57
2023-01-19T19:37:27.947Z,19.47
2023-01-19T19:39:56.145Z,18.43
2023-01-19T19:42:24.298Z,19.43
2023-01-19T19:44:54.235Z,17.47
2023-01-19T19:47:27.142Z,17.53
2023-01-19T19:49:55.152Z,17.90
2023-01-19T19:52:21.812Z,18.03
2023-01-19T19:54:52.222Z,19.43
2023-01-19T19:57:20.669Z,19.07
2023-01-19T19:59:48.174Z,17.43
2023-01-19T20:02:23.224Z,18.47
2023-01-19T20:04:53.604Z,18.43
2023-01-19T20:07:23.044Z,19.53
2023-01-19T20:09:54.035Z,18.10
2023-01-19T20:12:22.169Z,20.40
2023-01-19T20:14:49.204Z,18.87
2023-01-19T20:17:18.912Z,16.73
2023-01-19T20:19:49.486Z,18.43
2023-01-19T20:22:16.462Z,18.37
2023-01-19T20:24:46.746Z,19.60
2023-01-19T20:27:23.269Z,17.20
2023-01-19T20:30:01.486Z,17.97
2023-01-19T20:32:28.540Z,17.63
2023-01-19T20:35:04.345Z,16.57
2023-01-19T20:37:34.532Z,16.50
2023-01-19T20:40:04.115Z,18.10
2023-01-19T20:42:33.814Z,18.67
2023-01-19T20:45:02.611Z,17.30
2023-01-19T20:47:32.896Z,16.87
2023-01-19T20:50:03.040Z,16.10
2023-01-19T20:52:31.782Z,17.10
2023-01-19T20:55:01.739Z,15.37
2023-01-19T20:57:31.139Z,15.27
2023-01-19T21:00:02.484Z,15.13
2023-01-19T21:02:29.659Z,16.25
2023-01-19T21:04:56.982Z,15.57
2023-01-19T21:07:26.371Z,15.53
2023-01-19T21:09:56.309Z,15.80
2023-01-19T21:12:25.128Z,15.50
2023-01-19T21:14:53.954Z,16.80
2023-01-19T21:17:22.363Z,14.63
2023-01-19T21:19:53.165Z,16.50
2023-01-19T21:22:20.133Z,15.87
2023-01-19T21:24:48.221Z,14.80
2023-01-19T21:27:16.311Z,15.60
2023-01-19T21:29:59.080Z,16.13
2023-01-19T21:32:29.420Z,14.93
2023-01-19T21:34:56.940Z,13.90
2023-01-19T21:37:25.219Z,15.60
2023-01-19T21:39:52.531Z,14.30
2023-01-19T21:42:23.550Z,15.20
2023-01-19T21:44:52.622Z,15.35
2023-01-19T21:47:19.765Z,15.30
2023-01-19T21:49:47.168Z,15.17
2023-01-19T21:52:14.577Z,15.90
2023-01-19T21:54:48.058Z,14.23
2023-01-19T21:57:22.042Z,16.53
2023-01-19T21:59:51.287Z,15.33
2023-01-19T22:02:38.010Z,15.50
2023-01-19T22:05:08.375Z,15.97
2023-01-19T22:07:37.344Z,14.50
2023-01-19T22:10:10.938Z,16.03
2023-01-19T22:12:44.552Z,15.50
2023-01-19T22:15:18.123Z,16.80
2023-01-19T22:17:49.397Z,14.13
2023-01-19T22:20:16.421Z,16.10
2023-01-19T22:22:44.912Z,16.43
2023-01-19T22:25:15.233Z,15.33
2023-01-19T22:27:45.277Z,15.30
2023-01-19T22:30:13.445Z,16.70
2023-01-19T22:32:43.567Z,15.47
2023-01-19T22:35:12.303Z,15.87
2023-01-19T22:37:41.787Z,17.03
2023-01-19T22:40:09.141Z,17.20
2023-01-19T22:42:36.376Z,17.40
2023-01-19T22:45:10.349Z,18.10
2023-01-19T22:47:40.840Z,18.40
2023-01-19T22:50:10.704Z,17.40
2023-01-19T22:52:41.155Z,17.63
2023-01-19T22:55:11.668Z,17.27
2023-01-19T22:57:40.480Z,17.23
2023-01-19T23:00:09.023Z,18.63
2023-01-19T23:02:36.617Z,20.50
2023-01-19T23:05:05.454Z,18.53
2023-01-19T23:07:34.784Z,21.40
2023-01-19T23:10:05.908Z,20.13
2023-01-19T23:12:33.006Z,20.33
2023-01-19T23:14:59.813Z,18.90
2023-01-19T23:17:27.787Z,21.10
2023-01-19T23:19:55.292Z,21.93
2023-01-19T23:22:24.919Z,20.40
2023-01-19T23:24:53.761Z,21.13
2023-01-19T23:27:20.806Z,19.97
2023-01-19T23:29:57.191Z,19.30
2023-01-19T23:32:31.476Z,20.60
2023-01-19T23:34:58.671Z,20.53
2023-01-19T23:37:27.636Z,21.87
2023-01-19T23:39:54.500Z,19.17
2023-01-19T23:42:25.717Z,21.20
2023-01-19T23:45:00.340Z,18.75
2023-01-19T23:47:33.704Z,17.10
2023-01-19T23:50:02.705Z,17.17
2023-01-19T23:52:29.878Z,18.00
2023-01-19T23:54:56.941Z,18.17
2023-01-19T23:57:23.805Z,17.70
2023-01-19T23:59:50.711Z,19.20
